This is the latest recevied weather packets stored in our database for station/object W4NRG-1. If no packets are shown the sender has not sent any weather packets the latest 10 day(s).
| Time | Temp. | Humidity | Pressure | Rain* | Wind** | Luminosity | Snow |
|---|---|---|---|---|---|---|---|
| 1777414796 | 17.22° C | 52% | 1018.7 hPa | 0 mm | - | - | - |
| 1777414492 | 17.78° C | 51% | 1018.4 hPa | 0 mm | - | - | - |
| 1777414191 | 18.33° C | 51% | 1018.6 hPa | 0 mm | - | - | - |
| 1777413887 | 18.33° C | 50% | 1018.2 hPa | 0 mm | - | - | - |
| 1777413583 | 18.33° C | 50% | 1018.2 hPa | 0 mm | - | - | - |
| 1777413279 | 17.78° C | 51% | 1018.4 hPa | 0 mm | - | - | - |
| 1777412974 | 17.78° C | 51% | 1018.5 hPa | 0 mm | - | - | - |
| 1777412673 | 18.33° C | 49% | 1018.4 hPa | 0 mm | - | - | - |
| 1777412372 | 18.33° C | 49% | 1018.4 hPa | 0 mm | - | - | - |
| 1777412066 | 18.33° C | 47% | 1018.4 hPa | 0 mm | - | - | - |
| 1777411762 | 18.33° C | 47% | 1018.5 hPa | 0 mm | - | - | - |
| 1777411456 | 18.33° C | 49% | 1018.5 hPa | 0 mm | - | - | - |
| 1777411156 | 18.33° C | 47% | 1018.7 hPa | 0 mm | - | - | - |
| 1777410856 | 18.33° C | 47% | 1018.8 hPa | 0 mm | - | - | - |
| 1777410555 | 19.44° C | 46% | 1018.7 hPa | 0 mm | - | - | - |
| 1777410255 | 19.44° C | 48% | 1018.6 hPa | 0 mm | - | - | - |
| 1777409949 | 18.89° C | 48% | 1018.4 hPa | 0 mm | - | - | - |
| 1777409645 | 18.33° C | 50% | 1018.8 hPa | 0 mm | - | - | - |
| 1777409341 | 17.78° C | 50% | 1018.8 hPa | 0 mm | - | - | - |
| 1777409036 | 18.33° C | 49% | 1018.9 hPa | 0 mm | - | - | - |
| 1777408734 | 18.89° C | 48% | 1018.7 hPa | 0 mm | - | - | - |
| 1777408430 | 18.33° C | 51% | 1019 hPa | 0 mm | - | - | - |
| 1777408124 | 18.33° C | 48% | 1018.8 hPa | 0 mm | - | - | - |
| 1777407819 | 18.33° C | 49% | 1019.1 hPa | 0 mm | - | - | - |
| 1777407517 | 18.89° C | 47% | 1019 hPa | 0 mm | - | - | - |
* Rain latest hour (hover to see other rain measurements)
** Current wind speed in m/s (hover to see current wind gust speed)